Time;durP1;ratioP1;P1;durP2;ratioP2;P2;SDS_P1;SDS_P2;PMS_P1;PMS_P2;Temp;Humidity;BMP_temperature;BMP_pressure;BME280_temperature;BME280_humidity;BME280_pressure;Samples;Min_cycle;Max_cycle;Signal;HPM_P1;HPM_P2
2022/03/02 00:00:22;;;;;;;76.40;34.20;;;;;;;0.36;53.13;100461.88;1783953;80;21517;-37
2022/03/02 00:02:48;;;;;;;82.15;34.53;;;;;;;0.34;53.08;100454.95;1783976;80;21425;-38
2022/03/02 00:05:14;;;;;;;85.57;35.48;;;;;;;0.33;53.04;100450.21;1784289;80;20990;-37
2022/03/02 00:07:41;;;;;;;78.10;36.50;;;;;;;0.29;53.48;100456.64;1784007;80;20994;-38
2022/03/02 00:10:07;;;;;;;79.92;35.28;;;;;;;0.26;53.61;100453.63;1783968;80;20990;-36
2022/03/02 00:12:34;;;;;;;101.00;39.00;;;;;;;0.27;53.45;100448.87;1784002;80;21442;-37
2022/03/02 00:14:59;;;;;;;88.75;37.85;;;;;;;0.23;53.28;100452.30;1783946;80;20980;-37
2022/03/02 00:17:25;;;;;;;89.30;37.98;;;;;;;0.20;53.35;100447.13;1783985;80;20935;-38
2022/03/02 00:19:51;;;;;;;85.07;38.55;;;;;;;0.15;54.00;100446.23;1783967;80;21002;-38
2022/03/02 00:22:18;;;;;;;90.00;38.28;;;;;;;0.11;53.94;100447.94;1784031;80;21464;-36
2022/03/02 00:24:50;;;;;;;93.65;38.90;;;;;;;0.08;54.40;100444.47;1784115;80;20991;-38
2022/03/02 00:27:12;;;;;;;92.12;40.63;;;;;;;0.04;54.39;100442.70;1783091;80;20969;-37
2022/03/02 00:29:37;;;;;;;103.67;40.15;;;;;;;-0.01;55.01;100450.01;1783938;80;20956;-36
2022/03/02 00:32:03;;;;;;;80.72;37.95;;;;;;;-0.02;55.49;100440.54;1783939;80;20940;-38
2022/03/02 00:34:29;;;;;;;98.97;38.95;;;;;;;-0.02;55.43;100446.11;1783656;80;21045;-35
2022/03/02 00:36:55;;;;;;;87.70;38.60;;;;;;;-0.04;55.42;100435.79;1784004;80;21468;-37
2022/03/02 00:39:22;;;;;;;95.77;39.00;;;;;;;-0.03;55.14;100442.67;1784000;80;21437;-38
2022/03/02 00:41:47;;;;;;;111.25;44.38;;;;;;;-0.05;55.08;100440.95;1784070;80;20974;-36
2022/03/02 00:44:13;;;;;;;115.25;47.10;;;;;;;-0.08;55.68;100440.48;1783919;80;20994;-36
2022/03/02 00:46:43;;;;;;;125.27;47.60;;;;;;;-0.09;56.07;100441.75;1784000;80;20990;-38
2022/03/02 00:49:09;;;;;;;135.85;49.73;;;;;;;-0.09;55.44;100437.47;1774186;80;21027;-37
2022/03/02 00:51:35;;;;;;;165.73;57.33;;;;;;;-0.12;55.81;100433.56;1747149;82;20980;-43
2022/03/02 00:54:01;;;;;;;180.78;56.42;;;;;;;-0.13;55.67;100434.84;1747126;82;21014;-36
2022/03/02 00:56:27;;;;;;;174.00;60.63;;;;;;;-0.14;55.39;100428.81;1747143;82;21623;-37
2022/03/02 00:58:53;;;;;;;201.55;60.65;;;;;;;-0.10;54.89;100425.39;1747166;82;21052;-35
2022/03/02 01:01:19;;;;;;;196.10;66.30;;;;;;;-0.11;55.23;100422.38;1747164;82;21493;-37
2022/03/02 01:03:45;;;;;;;209.67;67.97;;;;;;;-0.14;55.29;100423.64;1747198;82;21015;-37
2022/03/02 01:06:10;;;;;;;195.70;64.60;;;;;;;-0.15;55.48;100418.02;1747189;81;20979;-38
2022/03/02 01:08:36;;;;;;;173.90;54.93;;;;;;;-0.16;55.00;100413.72;1747081;82;20979;-36
2022/03/02 01:11:03;;;;;;;170.17;52.88;;;;;;;-0.10;54.22;100409.87;1747165;81;20972;-36
2022/03/02 01:13:29;;;;;;;145.60;47.23;;;;;;;-0.12;54.55;100406.41;1747368;82;20983;-37
2022/03/02 01:15:54;;;;;;;114.67;39.80;;;;;;;-0.10;54.35;100403.84;1747129;81;21807;-38
2022/03/02 01:18:20;;;;;;;96.72;35.50;;;;;;;-0.05;53.86;100403.02;1747182;81;21620;-37
2022/03/02 01:20:46;;;;;;;97.25;34.27;;;;;;;-0.05;53.13;100398.28;1747185;81;21544;-37
2022/03/02 01:23:12;;;;;;;90.40;33.67;;;;;;;-0.06;53.56;100392.66;1747164;81;20952;-37
2022/03/02 01:25:38;;;;;;;83.37;32.00;;;;;;;-0.06;53.91;100388.78;1747115;82;20971;-38
2022/03/02 01:28:04;;;;;;;81.72;30.80;;;;;;;-0.04;52.73;100384.07;1747145;82;21015;-37
2022/03/02 01:30:30;;;;;;;83.00;31.23;;;;;;;-0.05;53.02;100381.47;1747112;82;20970;-38
2022/03/02 01:32:55;;;;;;;72.80;31.27;;;;;;;-0.07;53.23;100380.16;1747250;82;21520;-37
2022/03/02 01:35:22;;;;;;;72.47;29.18;;;;;;;-0.04;52.83;100376.31;1747106;82;20967;-37
2022/03/02 01:37:50;;;;;;;79.35;29.10;;;;;;;-0.03;52.26;100376.73;1747170;82;21011;-36
2022/03/02 01:40:16;;;;;;;77.22;30.65;;;;;;;-0.04;52.42;100372.84;1746999;82;20975;-36
2022/03/02 01:42:43;;;;;;;68.00;28.10;;;;;;;-0.09;52.55;100375.82;1747093;81;21015;-37
2022/03/02 01:45:11;;;;;;;73.00;29.02;;;;;;;-0.11;53.02;100369.37;1747192;81;20972;-37
2022/03/02 01:47:40;;;;;;;75.12;29.85;;;;;;;-0.08;52.58;100372.39;1747198;82;20975;-38
2022/03/02 01:50:10;;;;;;;78.95;29.25;;;;;;;-0.11;52.71;100371.08;1768060;80;20964;-36
2022/03/02 01:52:36;;;;;;;71.57;29.90;;;;;;;-0.13;52.32;100371.06;1783917;80;20955;-38
2022/03/02 01:55:04;;;;;;;80.07;30.15;;;;;;;-0.17;52.96;100373.20;1783922;80;20940;-37
2022/03/02 01:57:29;;;;;;;77.10;30.80;;;;;;;-0.23;53.37;100370.16;1783982;80;20955;-38
2022/03/02 01:59:55;;;;;;;77.08;29.52;;;;;;;-0.23;53.32;100366.71;1783807;80;20987;-36
2022/03/02 02:02:21;;;;;;;76.40;29.10;;;;;;;-0.28;52.92;100365.81;1783922;80;21457;-38
2022/03/02 02:04:47;;;;;;;74.20;29.30;;;;;;;-0.33;53.23;100364.48;1783929;80;20955;-39
2022/03/02 02:07:13;;;;;;;79.30;31.37;;;;;;;-0.31;53.30;100356.73;1783895;80;20995;-38
2022/03/02 02:09:39;;;;;;;72.62;29.67;;;;;;;-0.34;53.42;100360.62;1783886;80;20951;-37
2022/03/02 02:12:05;;;;;;;69.05;29.23;;;;;;;-0.40;53.84;100353.66;1783853;80;20951;-37
2022/03/02 02:14:31;;;;;;;71.00;29.30;;;;;;;-0.40;53.73;100351.08;1783985;80;20935;-38
2022/03/02 02:16:57;;;;;;;69.27;27.45;;;;;;;-0.36;53.99;100344.20;1783839;80;20956;-37
2022/03/02 02:19:22;;;;;;;72.45;27.82;;;;;;;-0.37;53.96;100341.20;1783956;80;20966;-37
2022/03/02 02:21:48;;;;;;;70.47;28.00;;;;;;;-0.34;53.04;100336.92;1783901;80;21437;-38
2022/03/02 02:24:16;;;;;;;69.45;27.40;;;;;;;-0.34;53.15;100339.94;1783880;80;20979;-37
2022/03/02 02:26:41;;;;;;;68.45;26.05;;;;;;;-0.33;52.61;100340.36;1784006;80;20943;-38
2022/03/02 02:29:08;;;;;;;64.67;26.23;;;;;;;-0.40;52.49;100332.98;1783862;80;20999;-36
2022/03/02 02:31:34;;;;;;;64.03;26.23;;;;;;;-0.44;52.69;100337.30;1783972;80;20939;-38
2022/03/02 02:34:00;;;;;;;63.68;25.23;;;;;;;-0.43;53.23;100325.23;1784114;80;21554;-39
2022/03/02 02:36:26;;;;;;;56.98;23.92;;;;;;;-0.41;52.86;100327.41;1784035;80;20951;-38
2022/03/02 02:38:53;;;;;;;62.93;24.45;;;;;;;-0.40;52.44;100329.11;1784051;80;20939;-37
2022/03/02 02:43:30;;;;;;;59.15;24.65;;;;;;;-0.36;52.95;100326.12;1800306;79;22597;-38
2022/03/02 02:45:56;;;;;;;58.63;22.75;;;;;;;-0.40;52.89;100320.95;1760399;81;21109;-39
2022/03/02 02:48:22;;;;;;;62.30;24.77;;;;;;;-0.43;52.87;100325.23;1760638;81;21027;-35
2022/03/02 02:50:49;;;;;;;55.23;22.93;;;;;;;-0.47;52.97;100323.06;1762025;81;21042;-39
2022/03/02 02:53:16;;;;;;;58.42;24.47;;;;;;;-0.43;52.28;100317.48;1761804;81;21026;-37
2022/03/02 02:55:43;;;;;;;59.00;24.17;;;;;;;-0.49;52.73;100318.31;1762049;80;20992;-39
2022/03/02 02:58:11;;;;;;;54.40;23.47;;;;;;;-0.49;53.05;100315.73;1761820;81;20983;-38
2022/03/02 03:00:41;;;;;;;65.87;25.10;;;;;;;-0.50;53.32;100309.26;1762023;81;21461;-39
2022/03/02 03:03:07;;;;;;;59.27;23.73;;;;;;;-0.49;53.98;100313.15;1761743;81;21424;-38
2022/03/02 03:05:34;;;;;;;56.30;24.00;;;;;;;-0.51;53.32;100310.98;1761840;80;20984;-38
2022/03/02 03:08:07;;;;;;;58.52;23.50;;;;;;;-0.50;53.37;100308.83;1761959;81;20990;-39
2022/03/02 03:10:34;;;;;;;57.95;23.42;;;;;;;-0.47;53.09;100316.61;1761798;80;20987;-37
2022/03/02 03:13:00;;;;;;;62.98;24.98;;;;;;;-0.46;52.96;100312.29;1761794;80;21003;-37
2022/03/02 03:15:26;;;;;;;67.25;23.70;;;;;;;-0.46;53.24;100310.56;1761774;81;21035;-39
2022/03/02 03:17:52;;;;;;;67.72;24.67;;;;;;;-0.48;53.16;100307.11;1742606;81;21578;-38
2022/03/02 03:20:24;;;;;;;50.03;21.55;;;;;;;-0.51;53.44;100303.64;1761847;81;20995;-39
2022/03/02 03:22:52;;;;;;;65.12;23.02;;;;;;;-0.45;52.73;100300.67;1761727;81;20983;-39
2022/03/02 03:25:18;;;;;;;56.65;23.02;;;;;;;-0.53;52.62;100297.17;1762005;80;21468;-37
2022/03/02 03:27:45;;;;;;;59.10;23.00;;;;;;;-0.54;52.75;100291.58;1761971;81;20979;-38
2022/03/02 03:30:13;;;;;;;54.80;23.02;;;;;;;-0.52;52.35;100295.03;1761719;81;21022;-37
2022/03/02 03:32:39;;;;;;;55.90;22.60;;;;;;;-0.62;52.98;100290.25;1761754;81;21815;-38
2022/03/02 03:35:07;;;;;;;57.35;22.62;;;;;;;-0.66;53.36;100291.50;1761811;81;21019;-37
2022/03/02 03:37:33;;;;;;;63.15;22.90;;;;;;;-0.64;53.39;100295.84;1761720;80;20979;-35
2022/03/02 03:39:59;;;;;;;56.95;23.50;;;;;;;-0.65;53.20;100290.22;1761768;81;21038;-37
2022/03/02 03:42:25;;;;;;;56.25;22.62;;;;;;;-0.66;53.97;100294.94;1761688;80;21017;-39
2022/03/02 03:44:52;;;;;;;52.48;22.75;;;;;;;-0.62;53.60;100288.96;1761966;81;21001;-38
2022/03/02 03:47:18;;;;;;;60.45;24.82;;;;;;;-0.65;54.20;100284.20;1762136;81;20998;-38
2022/03/02 03:49:44;;;;;;;52.33;24.00;;;;;;;-0.62;53.85;100277.73;1762353;81;20983;-35
2022/03/02 03:52:10;;;;;;;50.15;22.02;;;;;;;-0.67;53.96;100286.77;1761992;81;20991;-39
2022/03/02 03:54:36;;;;;;;60.48;22.60;;;;;;;-0.66;53.88;100284.60;1761486;81;20990;-36
2022/03/02 03:57:04;;;;;;;60.10;22.07;;;;;;;-0.68;53.94;100285.46;1761785;81;21480;-36
2022/03/02 03:59:30;;;;;;;52.03;21.87;;;;;;;-0.66;53.71;100286.33;1761430;81;21043;-36
2022/03/02 04:01:56;;;;;;;55.67;22.52;;;;;;;-0.69;53.98;100278.55;1761419;81;20947;-37
2022/03/02 04:04:22;;;;;;;48.15;20.82;;;;;;;-0.67;53.67;100278.16;1761432;81;20983;-37
2022/03/02 04:06:48;;;;;;;47.45;20.55;;;;;;;-0.69;54.29;100281.14;1761607;81;20983;-38
2022/03/02 04:09:14;;;;;;;55.43;21.73;;;;;;;-0.65;54.35;100276.45;1761498;81;21484;-38
2022/03/02 04:11:39;;;;;;;57.20;23.38;;;;;;;-0.65;53.76;100274.72;1761515;81;21498;-38
2022/03/02 04:14:05;;;;;;;53.30;21.85;;;;;;;-0.61;53.36;100274.31;1761512;80;20983;-37
2022/03/02 04:16:31;;;;;;;57.62;22.42;;;;;;;-0.58;53.38;100274.34;1761452;81;20987;-36
2022/03/02 04:18:57;;;;;;;45.23;21.57;;;;;;;-0.58;53.53;100266.59;1761458;81;20991;-36
2022/03/02 04:21:22;;;;;;;54.83;21.50;;;;;;;-0.58;53.33;100265.30;1761422;81;20976;-38
2022/03/02 04:23:48;;;;;;;59.67;23.30;;;;;;;-0.60;53.64;100261.41;1761397;81;20984;-37
2022/03/02 04:26:14;;;;;;;55.28;23.32;;;;;;;-0.60;53.86;100261.81;1761579;81;20979;-36
2022/03/02 04:28:40;;;;;;;53.33;22.98;;;;;;;-0.59;53.48;100252.78;1761417;81;21488;-39
2022/03/02 04:31:06;;;;;;;56.58;24.55;;;;;;;-0.57;53.43;100263.13;1761520;81;20991;-37
2022/03/02 04:33:32;;;;;;;62.20;25.08;;;;;;;-0.56;53.21;100259.70;1761457;81;20991;-36
2022/03/02 04:35:58;;;;;;;53.58;23.65;;;;;;;-0.57;53.22;100257.97;1761448;81;20964;-39
2022/03/02 04:38:24;;;;;;;50.50;21.85;;;;;;;-0.56;53.04;100257.53;1761611;81;21019;-39
2022/03/02 04:40:50;;;;;;;55.95;22.20;;;;;;;-0.60;53.38;100251.08;1761410;81;21019;-37
2022/03/02 04:43:17;;;;;;;48.60;20.77;;;;;;;-0.60;53.50;100251.08;1761319;81;21032;-38
2022/03/02 04:45:44;;;;;;;55.70;22.62;;;;;;;-0.62;53.51;100242.86;1761573;81;21516;-37
2022/03/02 04:48:09;;;;;;;51.63;21.33;;;;;;;-0.66;53.76;100244.56;1761724;81;20987;-37
2022/03/02 04:50:35;;;;;;;56.25;23.22;;;;;;;-0.67;54.17;100248.02;1761443;81;21039;-36
2022/03/02 04:53:02;;;;;;;55.35;23.30;;;;;;;-0.70;54.43;100247.14;1761422;81;21006;-37
2022/03/02 04:55:28;;;;;;;59.53;24.52;;;;;;;-0.69;54.52;100251.03;1761555;81;20991;-39
2022/03/02 04:57:58;;;;;;;57.03;25.48;;;;;;;-0.69;54.52;100251.03;1761390;81;20999;-38
2022/03/02 05:00:31;;;;;;;60.43;23.65;;;;;;;-0.66;54.24;100252.75;1761653;81;21453;-36
2022/03/02 05:02:59;;;;;;;76.17;29.12;;;;;;;-0.67;54.28;100252.33;1761521;81;21035;-37
2022/03/02 05:05:26;;;;;;;;;;;;;;;-0.72;55.55;100248.85;1764121;81;20976;-37
2022/03/02 05:07:52;;;;;;;;;;;;;;;-0.84;56.31;100246.61;1764064;81;20119;-37
2022/03/02 05:10:21;;;;;;;75.22;28.32;;;;;;;-0.89;56.73;100243.16;1761354;81;20112;-38
2022/03/02 05:12:47;;;;;;;70.12;26.12;;;;;;;-0.88;56.02;100247.45;1761411;81;20991;-37
2022/03/02 05:15:15;;;;;;;69.75;25.80;;;;;;;-0.87;55.75;100238.86;1761394;81;21050;-37
2022/03/02 05:17:42;;;;;;;63.08;26.80;;;;;;;-0.90;55.99;100238.83;1761538;81;20975;-38
2022/03/02 05:20:11;;;;;;;68.02;26.48;;;;;;;-0.94;56.38;100230.64;1761432;81;20986;-37
2022/03/02 05:22:37;;;;;;;60.20;24.37;;;;;;;-0.94;55.94;100231.92;1761315;81;20983;-38
2022/03/02 05:25:06;;;;;;;63.08;25.95;;;;;;;-0.94;55.97;100233.22;1761477;81;21488;-37
2022/03/02 05:27:32;;;;;;;63.98;27.17;;;;;;;-0.98;56.44;100228.89;1761381;80;21186;-38
2022/03/02 05:29:57;;;;;;;67.97;27.07;;;;;;;-0.96;56.45;100231.05;1761458;81;21035;-37
2022/03/02 05:32:23;;;;;;;69.92;26.87;;;;;;;-0.97;56.34;100231.45;1761428;81;21460;-37
2022/03/02 05:34:50;;;;;;;61.15;27.90;;;;;;;-1.01;57.19;100232.30;1761351;81;20961;-37
2022/03/02 05:37:16;;;;;;;66.40;28.30;;;;;;;-0.99;57.19;100228.44;1761327;81;20986;-37
2022/03/02 05:39:43;;;;;;;81.20;28.90;;;;;;;-1.05;57.26;100227.98;1761370;81;21421;-36
2022/03/02 05:42:09;;;;;;;72.90;29.57;;;;;;;-1.04;57.32;100228.83;1760417;81;21472;-38
2022/03/02 05:44:35;;;;;;;67.72;28.70;;;;;;;-1.03;57.67;100233.16;1748052;82;20999;-38
2022/03/02 05:47:01;;;;;;;83.72;30.17;;;;;;;-1.03;57.40;100228.85;1748024;82;21030;-38
2022/03/02 05:49:27;;;;;;;77.08;30.95;;;;;;;-1.04;57.13;100231.41;1747996;82;21055;-36
2022/03/02 05:51:53;;;;;;;84.65;31.73;;;;;;;-1.07;57.99;100232.27;1747947;81;21038;-38
2022/03/02 05:54:19;;;;;;;80.12;30.48;;;;;;;-1.09;58.35;100226.64;1748096;81;20991;-37
2022/03/02 05:56:44;;;;;;;92.97;31.15;;;;;;;-1.08;58.12;100229.67;1748067;81;21521;-37
2022/03/02 05:59:13;;;;;;;68.75;30.08;;;;;;;-1.11;58.11;100229.23;1748027;81;20972;-37
2022/03/02 06:01:40;;;;;;;71.62;30.20;;;;;;;-1.13;58.06;100227.48;1747979;82;21418;-37
2022/03/02 06:04:07;;;;;;;74.05;31.17;;;;;;;-1.14;58.00;100233.52;1748170;81;21022;-36
2022/03/02 06:06:35;;;;;;;79.60;30.33;;;;;;;-1.17;58.33;100235.19;1748224;81;21050;-37
2022/03/02 06:09:05;;;;;;;81.63;31.60;;;;;;;-1.16;58.20;100228.34;1748081;81;20995;-37
2022/03/02 06:11:32;;;;;;;80.00;32.65;;;;;;;-1.14;58.51;100229.64;1748248;81;21030;-37
2022/03/02 06:13:58;;;;;;;97.20;33.83;;;;;;;-1.14;58.78;100227.06;1747958;81;21434;-37
2022/03/02 06:16:25;;;;;;;86.75;33.23;;;;;;;-1.05;58.67;100228.41;1747934;81;20999;-36
2022/03/02 06:18:51;;;;;;;94.23;35.13;;;;;;;-0.91;58.40;100226.79;1748229;81;21034;-36
2022/03/02 06:21:30;;;;;;;98.03;34.05;;;;;;;-0.90;58.18;100232.81;1747980;82;20968;-38
2022/03/02 06:23:57;;;;;;;91.45;34.23;;;;;;;-0.93;58.37;100232.34;1747864;81;21031;-36
2022/03/02 06:26:25;;;;;;;93.67;34.55;;;;;;;-0.93;58.31;100231.05;1748061;81;20987;-38
2022/03/02 06:28:52;;;;;;;104.45;36.55;;;;;;;-0.92;58.58;100235.38;1748057;81;20987;-38
2022/03/02 06:31:18;;;;;;;113.70;38.73;;;;;;;-0.93;58.58;100228.47;1747977;81;20999;-36
2022/03/02 06:33:46;;;;;;;109.10;38.85;;;;;;;-0.89;58.69;100228.06;1747974;81;20953;-37
2022/03/02 06:36:13;;;;;;;105.37;38.42;;;;;;;-0.84;58.57;100229.81;1747521;81;20995;-38
2022/03/02 06:38:39;;;;;;;120.22;40.35;;;;;;;-0.79;58.40;100229.42;1748201;82;21026;-38
2022/03/02 06:41:16;;;;;;;107.15;37.70;;;;;;;-0.69;58.08;100220.44;1747986;81;21051;-36
2022/03/02 06:44:04;;;;;;;116.10;37.80;;;;;;;-0.69;58.34;100225.20;1756331;80;20991;-38
2022/03/02 06:46:57;;;;;;;114.67;38.28;;;;;;;-0.63;58.05;100217.91;1761419;81;20995;-38
2022/03/02 06:49:56;;;;;;;87.65;35.38;;;;;;;-0.58;58.65;100220.09;1761298;81;21448;-37
2022/03/02 06:52:27;;;;;;;102.95;38.83;;;;;;;-0.58;57.99;100220.09;1753031;81;21460;-38
2022/03/02 06:54:55;;;;;;;91.97;40.85;;;;;;;-0.52;57.37;100229.15;1761342;81;21394;-37
2022/03/02 06:57:25;;;;;;;120.05;35.10;;;;;;;-0.39;57.76;100217.14;1761304;81;21452;-37
2022/03/02 06:59:53;;;;;;;80.10;33.58;;;;;;;-0.32;56.42;100214.17;1761196;81;20972;-36
2022/03/02 07:02:22;;;;;;;;;;;;;;;-0.14;55.77;100218.55;1764153;81;20987;-37
2022/03/02 07:04:52;;;;;;;121.95;38.28;;;;;;;-0.02;55.70;100216.85;1760435;81;20097;-37
2022/03/02 07:07:18;;;;;;;104.03;36.73;;;;;;;0.11;55.41;100212.57;1761340;80;20991;-37
2022/03/02 07:09:45;;;;;;;140.05;37.45;;;;;;;0.17;54.99;100209.98;1761312;81;20987;-38
2022/03/02 07:12:11;;;;;;;144.37;44.98;;;;;;;0.21;54.51;100209.56;1761531;81;21653;-37
2022/03/02 07:14:37;;;;;;;116.90;41.42;;;;;;;0.26;54.06;100202.67;1761354;81;20990;-38
2022/03/02 07:17:05;;;;;;;132.82;39.30;;;;;;;0.34;53.92;100203.97;1761250;81;20979;-36
2022/03/02 07:19:32;;;;;;;77.35;30.48;;;;;;;0.40;54.07;100194.94;1761194;81;20995;-38
2022/03/02 07:22:04;;;;;;;439.30;50.63;;;;;;;0.51;53.58;100191.03;1761625;80;21453;-37
2022/03/02 07:24:36;;;;;;;203.25;39.90;;;;;;;0.57;52.53;100189.31;1761385;81;20964;-37
2022/03/02 07:27:04;;;;;;;85.15;27.48;;;;;;;0.61;52.04;100187.59;1761366;81;20991;-38
2022/03/02 07:29:34;;;;;;;75.17;27.15;;;;;;;0.68;52.39;100182.84;1761622;81;20988;-36
2022/03/02 07:32:01;;;;;;;1999.90;256.70;;;;;;;0.77;51.85;100183.27;1761431;81;21038;-37
2022/03/02 07:34:30;;;;;;;199.00;40.45;;;;;;;0.86;51.80;100183.70;1761615;81;20986;-39
2022/03/02 07:36:59;;;;;;;88.20;27.45;;;;;;;0.91;51.79;100181.94;1761443;81;20987;-38
2022/03/02 07:39:26;;;;;;;96.70;27.32;;;;;;;0.99;50.86;100184.09;1761484;81;20947;-38
2022/03/02 07:41:52;;;;;;;79.65;24.82;;;;;;;1.07;50.76;100178.89;1761701;81;20984;-37
2022/03/02 07:44:18;;;;;;;56.35;21.77;;;;;;;1.14;50.67;100174.98;1751365;80;21012;-39
2022/03/02 07:46:45;;;;;;;56.98;20.88;;;;;;;1.14;49.77;100177.57;1748271;81;20992;-37
2022/03/02 07:49:11;;;;;;;45.73;18.73;;;;;;;1.17;49.47;100174.57;1748294;81;21488;-38
2022/03/02 07:51:39;;;;;;;46.02;19.65;;;;;;;1.23;49.92;100171.95;1748133;81;21023;-36
2022/03/02 07:54:06;;;;;;;46.77;19.25;;;;;;;1.26;49.24;100171.95;1748201;81;21464;-37
2022/03/02 07:56:33;;;;;;;75.47;22.35;;;;;;;1.25;47.97;100174.09;1748306;81;20992;-37
2022/03/02 07:59:02;;;;;;;;;;;;;;;1.32;49.23;100171.47;1750815;81;20987;-38
2022/03/02 08:01:29;;;;;;;52.80;21.80;;;;;;;1.39;48.42;100171.03;1747678;81;20422;-36
2022/03/02 08:03:57;;;;;;;47.10;18.37;;;;;;;1.48;48.69;100170.14;1748217;81;20995;-38
2022/03/02 08:06:25;;;;;;;41.08;17.60;;;;;;;1.52;47.90;100165.36;1748145;81;21097;-36
2022/03/02 08:08:51;;;;;;;;;;;;;;;1.58;47.95;100161.88;1750854;81;21030;-37
2022/03/02 08:11:17;;;;;;;59.80;21.23;;;;;;;1.67;48.15;100160.53;1748155;81;20172;-37
2022/03/02 08:13:43;;;;;;;46.40;20.17;;;;;;;1.69;48.60;100148.41;1748443;81;20991;-38
2022/03/02 08:16:10;;;;;;;52.27;19.32;;;;;;;1.74;48.51;100146.66;1748270;81;21027;-38
2022/03/02 08:18:36;;;;;;;39.15;16.70;;;;;;;1.79;48.38;100146.20;1748290;81;20976;-38
2022/03/02 08:21:03;;;;;;;59.90;16.90;;;;;;;1.86;48.13;100147.05;1748151;82;20984;-38
2022/03/02 08:23:35;;;;;;;48.90;17.35;;;;;;;1.87;46.98;100148.34;1748278;81;21015;-38
2022/03/02 08:26:03;;;;;;;39.90;16.12;;;;;;;1.98;47.05;100155.17;1747959;81;20979;-38
2022/03/02 08:28:33;;;;;;;47.03;17.80;;;;;;;2.09;45.36;100155.95;1748202;81;20992;-38
2022/03/02 08:30:59;;;;;;;101.53;23.05;;;;;;;2.28;46.03;100157.55;1748191;81;21386;-37
2022/03/02 08:33:27;;;;;;;75.08;19.55;;;;;;;2.46;45.42;100159.59;1748137;81;21178;-38
2022/03/02 08:35:55;;;;;;;30.82;12.00;;;;;;;2.70;46.78;100157.21;1748302;81;20999;-39
2022/03/02 08:38:23;;;;;;;26.35;12.55;;;;;;;2.97;46.01;100156.08;1748208;81;20980;-39
2022/03/02 08:40:49;;;;;;;33.85;11.88;;;;;;;3.08;44.18;100150.77;1748149;82;21486;-41
2022/03/02 08:43:16;;;;;;;39.48;12.47;;;;;;;3.37;45.13;100150.44;1748016;81;21067;-38
2022/03/02 08:45:48;;;;;;;49.57;13.57;;;;;;;3.64;43.85;100145.33;1748618;81;20991;-38
2022/03/02 08:48:16;;;;;;;79.58;16.55;;;;;;;3.98;44.00;100147.89;1747886;81;21521;-39
2022/03/02 08:50:43;;;;;;;45.20;12.47;;;;;;;4.02;39.57;100141.75;1748167;81;20999;-40
2022/03/02 08:53:14;;;;;;;31.40;10.30;;;;;;;4.39;40.88;100149.01;1748467;81;21472;-40
2022/03/02 08:55:41;;;;;;;19.15;9.43;;;;;;;4.81;41.29;100136.98;1747572;81;21137;-40
2022/03/02 08:58:09;;;;;;;21.40;9.88;;;;;;;5.11;37.33;100135.13;1748260;81;21015;-38
2022/03/02 09:00:35;;;;;;;21.45;9.88;;;;;;;5.31;39.23;100143.86;1748287;81;21000;-38
2022/03/02 09:03:03;;;;;;;24.45;9.95;;;;;;;5.48;38.24;100141.78;1748226;81;21019;-39
2022/03/02 09:05:33;;;;;;;16.00;9.28;;;;;;;5.72;38.00;100133.86;1748125;81;21607;-39
2022/03/02 09:07:59;;;;;;;22.93;9.25;;;;;;;5.94;38.28;100130.78;1748188;81;21008;-39
2022/03/02 09:10:25;;;;;;;40.25;10.75;;;;;;;6.30;37.23;100124.31;1748129;81;21408;-39
2022/03/02 09:12:51;;;;;;;32.73;9.05;;;;;;;6.62;35.21;100122.64;1748262;81;21789;-39
2022/03/02 09:15:18;;;;;;;43.65;12.40;;;;;;;7.00;35.75;100119.00;1747304;82;21580;-39
2022/03/02 09:17:44;;;;;;;112.63;15.10;;;;;;;6.99;36.08;100114.69;1748478;81;21528;-42
2022/03/02 09:20:11;;;;;;;78.90;13.60;;;;;;;7.40;33.05;100110.03;1747966;81;21513;-42
2022/03/02 09:22:39;;;;;;;165.40;21.23;;;;;;;7.90;33.93;100104.19;1748266;81;21023;-39
2022/03/02 09:25:06;;;;;;;27.93;10.63;;;;;;;8.43;35.23;100106.86;1748089;81;20979;-40
2022/03/02 09:27:33;;;;;;;;;;;;;;;8.75;33.82;100103.61;1750635;82;20995;-39
2022/03/02 09:30:03;;;;;;;28.17;9.43;;;;;;;9.00;29.85;100094.85;1748165;82;20130;-39
2022/03/02 09:32:31;;;;;;;16.75;9.43;;;;;;;9.62;33.25;100101.30;1748033;81;21003;-40
2022/03/02 09:34:58;;;;;;;19.55;8.43;;;;;;;9.65;33.25;100100.34;1747994;82;20984;-41
2022/03/02 09:37:27;;;;;;;54.60;10.03;;;;;;;9.35;30.86;100097.95;1747801;81;21130;-39
2022/03/02 09:39:54;;;;;;;24.30;9.35;;;;;;;8.89;31.99;100099.17;1747180;81;21011;-39
2022/03/02 09:42:40;;;;;;;66.87;11.93;;;;;;;8.47;32.85;100104.98;1746948;81;21584;-43
2022/03/02 09:45:09;;;;;;;30.80;9.93;;;;;;;8.13;32.97;100101.28;1740292;82;21043;-41
2022/03/02 09:47:56;;;;;;;79.42;12.18;;;;;;;7.78;33.14;100098.02;1748219;81;21003;-41
2022/03/02 09:50:26;;;;;;;15.88;7.53;;;;;;;7.33;32.14;100089.33;1711927;84;21027;-41
2022/03/02 09:52:54;;;;;;;28.98;9.30;;;;;;;6.94;32.24;100090.41;1748161;81;21007;-38
2022/03/02 09:55:22;;;;;;;16.57;7.58;;;;;;;6.68;33.09;100097.20;1748104;81;20984;-43
2022/03/02 09:57:56;;;;;;;20.72;9.85;;;;;;;6.40;33.29;100100.97;1748032;81;21035;-39
2022/03/02 10:00:25;;;;;;;15.75;8.35;;;;;;;6.07;33.43;100101.36;1748097;81;21003;-40
2022/03/02 10:02:55;;;;;;;13.03;7.92;;;;;;;5.76;33.56;100097.66;1746466;82;21032;-40
2022/03/02 10:05:25;;;;;;;19.07;7.35;;;;;;;5.57;33.85;100089.40;1747585;81;21623;-40
2022/03/02 10:07:59;;;;;;;14.45;7.35;;;;;;;5.32;33.79;100085.15;1747488;81;21032;-38
2022/03/02 10:10:28;;;;;;;15.08;7.80;;;;;;;5.19;33.65;100087.61;1747551;81;21077;-40
2022/03/02 10:12:58;;;;;;;22.17;9.75;;;;;;;4.95;33.80;100084.61;1747390;81;21003;-39
2022/03/02 10:15:24;;;;;;;53.65;12.28;;;;;;;4.84;34.36;100078.75;1747403;81;21508;-39
2022/03/02 10:17:52;;;;;;;19.27;8.55;;;;;;;4.85;34.71;100076.54;1747390;81;20992;-40
2022/03/02 10:20:24;;;;;;;17.75;9.13;;;;;;;4.76;34.55;100065.84;1748231;81;21004;-39
2022/03/02 10:23:33;;;;;;;18.20;9.10;;;;;;;4.70;34.77;100065.12;1748033;81;21011;-38
2022/03/02 10:26:15;;;;;;;16.45;8.83;;;;;;;4.63;35.01;100064.81;1748141;81;21054;-38
2022/03/02 10:29:14;;;;;;;20.08;8.70;;;;;;;4.58;35.21;100061.86;1673348;85;21456;-39
2022/03/02 10:31:46;;;;;;;19.02;8.35;;;;;;;4.56;35.39;100059.70;1737617;82;21036;-39
2022/03/02 10:34:32;;;;;;;21.52;8.08;;;;;;;4.42;34.91;100057.78;1747914;81;20964;-40
2022/03/02 10:37:23;;;;;;;24.12;10.18;;;;;;;4.40;35.06;100063.47;1746843;81;21559;-39
2022/03/02 10:40:16;;;;;;;17.85;8.80;;;;;;;4.36;35.46;100059.20;1745075;82;21078;-38
2022/03/02 10:42:46;;;;;;;20.40;10.08;;;;;;;4.25;35.46;100055.48;1746428;81;21071;-40
2022/03/02 10:45:22;;;;;;;30.92;11.18;;;;;;;4.17;36.15;100052.17;1756606;80;21102;-40
2022/03/02 10:48:13;;;;;;;24.90;11.83;;;;;;;4.22;36.42;100043.81;1760950;81;21038;-38
2022/03/02 10:50:42;;;;;;;25.57;12.33;;;;;;;4.23;36.72;100037.28;1759912;81;21106;-38
2022/03/02 10:53:15;;;;;;;37.60;11.33;;;;;;;4.23;36.97;100037.28;1760168;81;21547;-37
2022/03/02 10:55:48;;;;;;;20.70;10.18;;;;;;;4.22;35.84;100038.19;1760035;81;21067;-40
2022/03/02 10:58:17;;;;;;;22.90;10.43;;;;;;;4.21;35.87;100034.30;1760236;81;21070;-39
2022/03/02 11:00:46;;;;;;;33.98;11.65;;;;;;;4.20;35.77;100028.25;1760187;81;21031;-38
2022/03/02 11:03:14;;;;;;;30.55;11.83;;;;;;;4.08;35.51;100023.70;1760758;81;21043;-40
2022/03/02 11:05:40;;;;;;;77.58;15.48;;;;;;;4.09;35.98;100010.63;1761362;81;20996;-38
2022/03/02 11:08:07;;;;;;;34.30;11.45;;;;;;;4.15;36.13;100012.30;1760972;81;21054;-39
2022/03/02 11:10:37;;;;;;;48.38;11.18;;;;;;;4.16;36.22;100017.45;1760123;81;20999;-39
2022/03/02 11:13:15;;;;;;;55.17;13.13;;;;;;;4.25;36.26;100012.52;1760421;81;21035;-40
2022/03/02 11:15:48;;;;;;;25.30;10.60;;;;;;;4.35;36.00;100001.52;1760799;81;21551;-41
2022/03/02 11:18:17;;;;;;;18.65;9.65;;;;;;;4.31;36.04;99999.84;1760233;81;21066;-40
2022/03/02 11:21:05;;;;;;;19.12;9.40;;;;;;;4.42;35.78;99996.16;1760312;81;21074;-41